sensor_id;sensor_type;location;lat;lon;timestamp;P1;durP1;ratioP1;P2;durP2;ratioP2
31378;SDS011;61664;48.112;11.662;2022-08-19T00:02:01;3.25;;;3.05;;
31378;SDS011;61664;48.112;11.662;2022-08-19T00:04:31;2.83;;;2.72;;
31378;SDS011;61664;48.112;11.662;2022-08-19T00:07:05;2.95;;;2.72;;
31378;SDS011;61664;48.112;11.662;2022-08-19T00:09:33;3.22;;;3.03;;
31378;SDS011;61664;48.112;11.662;2022-08-19T00:12:00;2.60;;;2.50;;
31378;SDS011;61664;48.112;11.662;2022-08-19T00:14:28;2.85;;;2.65;;
31378;SDS011;61664;48.112;11.662;2022-08-19T00:16:59;2.67;;;2.58;;
31378;SDS011;61664;48.112;11.662;2022-08-19T00:19:27;3.05;;;2.85;;
31378;SDS011;61664;48.112;11.662;2022-08-19T00:21:55;2.60;;;2.50;;
31378;SDS011;61664;48.112;11.662;2022-08-19T00:24:22;3.17;;;2.97;;
31378;SDS011;61664;48.112;11.662;2022-08-19T00:26:49;3.33;;;3.13;;
31378;SDS011;61664;48.112;11.662;2022-08-19T00:29:18;3.10;;;2.90;;
31378;SDS011;61664;48.112;11.662;2022-08-19T00:31:47;3.20;;;3.00;;
31378;SDS011;61664;48.112;11.662;2022-08-19T00:34:16;3.45;;;3.25;;
31378;SDS011;61664;48.112;11.662;2022-08-19T00:36:43;3.28;;;2.97;;
31378;SDS011;61664;48.112;11.662;2022-08-19T00:39:12;3.72;;;3.42;;
31378;SDS011;61664;48.112;11.662;2022-08-19T00:41:42;3.08;;;2.88;;
31378;SDS011;61664;48.112;11.662;2022-08-19T00:44:18;4.00;;;3.50;;
31378;SDS011;61664;48.112;11.662;2022-08-19T00:46:53;3.63;;;3.42;;
31378;SDS011;61664;48.112;11.662;2022-08-19T00:52:03;2.88;;;2.70;;
31378;SDS011;61664;48.112;11.662;2022-08-19T00:54:36;3.92;;;3.63;;
31378;SDS011;61664;48.112;11.662;2022-08-19T00:57:07;3.53;;;3.33;;
31378;SDS011;61664;48.112;11.662;2022-08-19T00:59:43;3.58;;;3.38;;
31378;SDS011;61664;48.112;11.662;2022-08-19T01:02:28;4.13;;;3.92;;
31378;SDS011;61664;48.112;11.662;2022-08-19T01:04:59;3.78;;;3.50;;
31378;SDS011;61664;48.112;11.662;2022-08-19T01:07:30;4.10;;;3.80;;
31378;SDS011;61664;48.112;11.662;2022-08-19T01:10:03;3.83;;;3.63;;
31378;SDS011;61664;48.112;11.662;2022-08-19T01:12:38;3.60;;;3.40;;
31378;SDS011;61664;48.112;11.662;2022-08-19T01:15:07;4.43;;;4.15;;
31378;SDS011;61664;48.112;11.662;2022-08-19T01:17:38;3.60;;;3.35;;
31378;SDS011;61664;48.112;11.662;2022-08-19T01:20:10;4.45;;;4.20;;
31378;SDS011;61664;48.112;11.662;2022-08-19T01:25:19;4.00;;;3.75;;
31378;SDS011;61664;48.112;11.662;2022-08-19T01:27:52;4.32;;;4.03;;
31378;SDS011;61664;48.112;11.662;2022-08-19T01:30:22;4.78;;;4.35;;
31378;SDS011;61664;48.112;11.662;2022-08-19T01:32:57;4.70;;;4.40;;
31378;SDS011;61664;48.112;11.662;2022-08-19T01:35:27;3.97;;;3.78;;
31378;SDS011;61664;48.112;11.662;2022-08-19T01:38:01;4.85;;;4.53;;
31378;SDS011;61664;48.112;11.662;2022-08-19T01:40:35;5.00;;;4.65;;
31378;SDS011;61664;48.112;11.662;2022-08-19T01:43:05;4.97;;;4.57;;
31378;SDS011;61664;48.112;11.662;2022-08-19T01:45:34;4.57;;;4.28;;
31378;SDS011;61664;48.112;11.662;2022-08-19T01:48:02;4.13;;;3.83;;
31378;SDS011;61664;48.112;11.662;2022-08-19T01:50:30;4.00;;;3.80;;
31378;SDS011;61664;48.112;11.662;2022-08-19T01:53:01;4.43;;;4.07;;
31378;SDS011;61664;48.112;11.662;2022-08-19T01:55:33;3.58;;;3.38;;
31378;SDS011;61664;48.112;11.662;2022-08-19T01:58:06;3.88;;;3.58;;
31378;SDS011;61664;48.112;11.662;2022-08-19T02:00:41;4.15;;;3.90;;
31378;SDS011;61664;48.112;11.662;2022-08-19T02:03:09;3.55;;;3.35;;
31378;SDS011;61664;48.112;11.662;2022-08-19T02:05:38;3.63;;;3.42;;
31378;SDS011;61664;48.112;11.662;2022-08-19T02:08:06;3.67;;;3.40;;
31378;SDS011;61664;48.112;11.662;2022-08-19T02:10:37;3.35;;;3.15;;
31378;SDS011;61664;48.112;11.662;2022-08-19T02:13:09;3.85;;;3.55;;
31378;SDS011;61664;48.112;11.662;2022-08-19T02:15:38;3.80;;;3.60;;
31378;SDS011;61664;48.112;11.662;2022-08-19T02:18:05;3.55;;;3.35;;
31378;SDS011;61664;48.112;11.662;2022-08-19T02:20:33;3.30;;;3.10;;
31378;SDS011;61664;48.112;11.662;2022-08-19T02:23:01;3.30;;;3.00;;
31378;SDS011;61664;48.112;11.662;2022-08-19T02:25:28;3.70;;;3.50;;
31378;SDS011;61664;48.112;11.662;2022-08-19T02:27:55;3.70;;;3.40;;
31378;SDS011;61664;48.112;11.662;2022-08-19T02:30:22;3.17;;;2.97;;
31378;SDS011;61664;48.112;11.662;2022-08-19T02:32:51;3.13;;;2.92;;
31378;SDS011;61664;48.112;11.662;2022-08-19T02:35:19;2.80;;;2.60;;
31378;SDS011;61664;48.112;11.662;2022-08-19T02:37:46;2.97;;;2.78;;
31378;SDS011;61664;48.112;11.662;2022-08-19T02:40:32;3.17;;;2.42;;
31378;SDS011;61664;48.112;11.662;2022-08-19T02:43:01;2.55;;;2.42;;
31378;SDS011;61664;48.112;11.662;2022-08-19T02:45:33;2.63;;;2.42;;
31378;SDS011;61664;48.112;11.662;2022-08-19T02:48:06;3.17;;;2.90;;
31378;SDS011;61664;48.112;11.662;2022-08-19T02:50:47;3.00;;;2.80;;
31378;SDS011;61664;48.112;11.662;2022-08-19T02:53:22;2.65;;;2.55;;
31378;SDS011;61664;48.112;11.662;2022-08-19T02:55:52;3.40;;;3.20;;
31378;SDS011;61664;48.112;11.662;2022-08-19T02:58:20;2.97;;;2.78;;
31378;SDS011;61664;48.112;11.662;2022-08-19T03:00:52;3.03;;;2.85;;
31378;SDS011;61664;48.112;11.662;2022-08-19T03:03:21;3.28;;;3.08;;
31378;SDS011;61664;48.112;11.662;2022-08-19T03:05:49;3.58;;;3.28;;
31378;SDS011;61664;48.112;11.662;2022-08-19T03:08:22;3.88;;;3.55;;
31378;SDS011;61664;48.112;11.662;2022-08-19T03:10:51;3.38;;;3.17;;
31378;SDS011;61664;48.112;11.662;2022-08-19T03:13:19;3.20;;;3.03;;
31378;SDS011;61664;48.112;11.662;2022-08-19T03:15:47;3.22;;;3.05;;
31378;SDS011;61664;48.112;11.662;2022-08-19T03:18:14;3.92;;;3.63;;
31378;SDS011;61664;48.112;11.662;2022-08-19T03:20:49;3.80;;;3.50;;
31378;SDS011;61664;48.112;11.662;2022-08-19T03:23:22;4.35;;;4.05;;
31378;SDS011;61664;48.112;11.662;2022-08-19T03:25:50;3.20;;;3.00;;
31378;SDS011;61664;48.112;11.662;2022-08-19T03:28:39;3.53;;;3.10;;
31378;SDS011;61664;48.112;11.662;2022-08-19T03:31:17;3.40;;;3.20;;
31378;SDS011;61664;48.112;11.662;2022-08-19T03:34:09;2.92;;;2.75;;
31378;SDS011;61664;48.112;11.662;2022-08-19T03:36:38;3.70;;;3.25;;
31378;SDS011;61664;48.112;11.662;2022-08-19T03:39:06;3.47;;;3.28;;
31378;SDS011;61664;48.112;11.662;2022-08-19T03:41:38;2.97;;;2.78;;
31378;SDS011;61664;48.112;11.662;2022-08-19T03:44:15;3.05;;;2.85;;
31378;SDS011;61664;48.112;11.662;2022-08-19T03:46:51;3.22;;;3.03;;
31378;SDS011;61664;48.112;11.662;2022-08-19T03:49:22;3.08;;;2.88;;
31378;SDS011;61664;48.112;11.662;2022-08-19T03:51:56;2.90;;;2.75;;
31378;SDS011;61664;48.112;11.662;2022-08-19T03:54:26;3.45;;;2.80;;
31378;SDS011;61664;48.112;11.662;2022-08-19T03:56:54;2.85;;;2.65;;
31378;SDS011;61664;48.112;11.662;2022-08-19T03:59:27;2.50;;;2.40;;
31378;SDS011;61664;48.112;11.662;2022-08-19T04:01:59;4.18;;;3.30;;
31378;SDS011;61664;48.112;11.662;2022-08-19T04:04:33;3.47;;;3.28;;
31378;SDS011;61664;48.112;11.662;2022-08-19T04:07:00;3.05;;;2.85;;
31378;SDS011;61664;48.112;11.662;2022-08-19T04:09:26;3.08;;;2.88;;
31378;SDS011;61664;48.112;11.662;2022-08-19T04:11:54;2.50;;;2.40;;
31378;SDS011;61664;48.112;11.662;2022-08-19T04:14:25;3.35;;;3.15;;
31378;SDS011;61664;48.112;11.662;2022-08-19T04:16:56;3.03;;;2.83;;
31378;SDS011;61664;48.112;11.662;2022-08-19T04:19:25;3.67;;;3.47;;
31378;SDS011;61664;48.112;11.662;2022-08-19T04:21:55;3.17;;;2.97;;
31378;SDS011;61664;48.112;11.662;2022-08-19T04:24:22;3.28;;;3.08;;
31378;SDS011;61664;48.112;11.662;2022-08-19T04:26:49;3.13;;;2.92;;
31378;SDS011;61664;48.112;11.662;2022-08-19T04:29:18;2.90;;;2.70;;
31378;SDS011;61664;48.112;11.662;2022-08-19T04:31:51;3.30;;;3.10;;
31378;SDS011;61664;48.112;11.662;2022-08-19T04:34:22;2.97;;;2.78;;
31378;SDS011;61664;48.112;11.662;2022-08-19T04:36:53;3.00;;;2.80;;
31378;SDS011;61664;48.112;11.662;2022-08-19T04:39:24;3.03;;;2.83;;
31378;SDS011;61664;48.112;11.662;2022-08-19T04:42:15;3.42;;;3.22;;
31378;SDS011;61664;48.112;11.662;2022-08-19T04:45:16;2.53;;;2.42;;
31378;SDS011;61664;48.112;11.662;2022-08-19T04:47:48;3.55;;;3.35;;
31378;SDS011;61664;48.112;11.662;2022-08-19T04:50:35;3.20;;;3.00;;
31378;SDS011;61664;48.112;11.662;2022-08-19T04:53:02;3.33;;;3.08;;
31378;SDS011;61664;48.112;11.662;2022-08-19T04:55:31;3.78;;;3.47;;
31378;SDS011;61664;48.112;11.662;2022-08-19T04:58:03;2.85;;;2.67;;
31378;SDS011;61664;48.112;11.662;2022-08-19T05:00:30;3.28;;;3.00;;
31378;SDS011;61664;48.112;11.662;2022-08-19T05:03:00;3.25;;;3.05;;
31378;SDS011;61664;48.112;11.662;2022-08-19T05:05:32;3.17;;;2.97;;
31378;SDS011;61664;48.112;11.662;2022-08-19T05:08:11;3.63;;;3.42;;
31378;SDS011;61664;48.112;11.662;2022-08-19T05:10:41;3.17;;;2.97;;
31378;SDS011;61664;48.112;11.662;2022-08-19T05:13:08;3.08;;;2.88;;
31378;SDS011;61664;48.112;11.662;2022-08-19T05:15:36;3.28;;;2.97;;
31378;SDS011;61664;48.112;11.662;2022-08-19T05:18:03;3.38;;;3.17;;
31378;SDS011;61664;48.112;11.662;2022-08-19T05:20:49;3.42;;;3.13;;
31378;SDS011;61664;48.112;11.662;2022-08-19T05:23:35;3.05;;;2.85;;
31378;SDS011;61664;48.112;11.662;2022-08-19T05:26:02;3.33;;;3.13;;
31378;SDS011;61664;48.112;11.662;2022-08-19T05:28:29;3.63;;;3.42;;
31378;SDS011;61664;48.112;11.662;2022-08-19T05:30:56;3.10;;;2.90;;
31378;SDS011;61664;48.112;11.662;2022-08-19T05:33:23;2.60;;;2.47;;
31378;SDS011;61664;48.112;11.662;2022-08-19T05:35:50;3.33;;;3.13;;
31378;SDS011;61664;48.112;11.662;2022-08-19T05:38:17;2.92;;;2.75;;
31378;SDS011;61664;48.112;11.662;2022-08-19T05:40:44;3.65;;;3.30;;
31378;SDS011;61664;48.112;11.662;2022-08-19T05:43:14;3.10;;;2.90;;
31378;SDS011;61664;48.112;11.662;2022-08-19T05:45:42;3.40;;;2.85;;
31378;SDS011;61664;48.112;11.662;2022-08-19T05:48:10;3.13;;;2.92;;
31378;SDS011;61664;48.112;11.662;2022-08-19T05:50:39;3.45;;;3.15;;
31378;SDS011;61664;48.112;11.662;2022-08-19T05:53:08;3.08;;;2.85;;
31378;SDS011;61664;48.112;11.662;2022-08-19T05:55:35;3.25;;;3.05;;
31378;SDS011;61664;48.112;11.662;2022-08-19T05:58:04;3.92;;;3.63;;
31378;SDS011;61664;48.112;11.662;2022-08-19T06:00:34;3.85;;;3.55;;
31378;SDS011;61664;48.112;11.662;2022-08-19T06:03:03;3.90;;;3.60;;
31378;SDS011;61664;48.112;11.662;2022-08-19T06:05:38;3.72;;;3.45;;
31378;SDS011;61664;48.112;11.662;2022-08-19T06:08:16;4.18;;;3.90;;
31378;SDS011;61664;48.112;11.662;2022-08-19T06:10:44;3.85;;;3.65;;
31378;SDS011;61664;48.112;11.662;2022-08-19T06:13:11;5.07;;;4.32;;
31378;SDS011;61664;48.112;11.662;2022-08-19T06:15:38;4.32;;;4.03;;
31378;SDS011;61664;48.112;11.662;2022-08-19T06:18:05;4.25;;;3.95;;
31378;SDS011;61664;48.112;11.662;2022-08-19T06:20:32;5.40;;;4.22;;
31378;SDS011;61664;48.112;11.662;2022-08-19T06:23:18;4.40;;;4.10;;
31378;SDS011;61664;48.112;11.662;2022-08-19T06:25:49;4.22;;;3.92;;
31378;SDS011;61664;48.112;11.662;2022-08-19T06:28:16;5.22;;;4.82;;
31378;SDS011;61664;48.112;11.662;2022-08-19T06:30:43;5.65;;;5.22;;
31378;SDS011;61664;48.112;11.662;2022-08-19T06:33:10;5.60;;;5.20;;
31378;SDS011;61664;48.112;11.662;2022-08-19T06:35:38;5.68;;;5.20;;
31378;SDS011;61664;48.112;11.662;2022-08-19T06:38:07;5.93;;;5.43;;
31378;SDS011;61664;48.112;11.662;2022-08-19T06:40:35;5.95;;;5.45;;
31378;SDS011;61664;48.112;11.662;2022-08-19T06:43:04;5.78;;;5.38;;
31378;SDS011;61664;48.112;11.662;2022-08-19T06:45:36;5.80;;;5.38;;
31378;SDS011;61664;48.112;11.662;2022-08-19T06:48:05;6.28;;;5.68;;
31378;SDS011;61664;48.112;11.662;2022-08-19T06:50:33;5.97;;;5.47;;
31378;SDS011;61664;48.112;11.662;2022-08-19T06:53:04;6.63;;;6.13;;
31378;SDS011;61664;48.112;11.662;2022-08-19T06:55:31;5.53;;;5.13;;
31378;SDS011;61664;48.112;11.662;2022-08-19T06:58:01;5.85;;;5.35;;
31378;SDS011;61664;48.112;11.662;2022-08-19T07:00:30;6.85;;;6.22;;
31378;SDS011;61664;48.112;11.662;2022-08-19T07:02:58;6.40;;;5.82;;
31378;SDS011;61664;48.112;11.662;2022-08-19T07:05:29;6.43;;;5.90;;
31378;SDS011;61664;48.112;11.662;2022-08-19T07:07:58;6.40;;;5.90;;
31378;SDS011;61664;48.112;11.662;2022-08-19T07:10:30;6.82;;;6.22;;
31378;SDS011;61664;48.112;11.662;2022-08-19T07:12:58;6.68;;;6.10;;
31378;SDS011;61664;48.112;11.662;2022-08-19T07:15:25;7.75;;;6.95;;
31378;SDS011;61664;48.112;11.662;2022-08-19T07:17:54;8.02;;;7.25;;
31378;SDS011;61664;48.112;11.662;2022-08-19T07:20:21;6.85;;;6.32;;
31378;SDS011;61664;48.112;11.662;2022-08-19T07:22:54;7.03;;;6.43;;
31378;SDS011;61664;48.112;11.662;2022-08-19T07:25:21;6.93;;;6.43;;
31378;SDS011;61664;48.112;11.662;2022-08-19T07:27:58;8.38;;;7.57;;
31378;SDS011;61664;48.112;11.662;2022-08-19T07:30:26;8.38;;;7.70;;
31378;SDS011;61664;48.112;11.662;2022-08-19T07:32:54;8.02;;;7.32;;
31378;SDS011;61664;48.112;11.662;2022-08-19T07:35:22;7.80;;;7.15;;
31378;SDS011;61664;48.112;11.662;2022-08-19T07:37:49;7.93;;;7.22;;
31378;SDS011;61664;48.112;11.662;2022-08-19T07:40:16;6.80;;;6.28;;
31378;SDS011;61664;48.112;11.662;2022-08-19T07:42:43;8.45;;;7.75;;
31378;SDS011;61664;48.112;11.662;2022-08-19T07:45:10;9.32;;;8.52;;
31378;SDS011;61664;48.112;11.662;2022-08-19T07:47:37;8.93;;;8.18;;
31378;SDS011;61664;48.112;11.662;2022-08-19T07:50:15;9.57;;;8.57;;
31378;SDS011;61664;48.112;11.662;2022-08-19T07:52:46;8.35;;;7.65;;
31378;SDS011;61664;48.112;11.662;2022-08-19T07:55:18;7.75;;;7.15;;
31378;SDS011;61664;48.112;11.662;2022-08-19T07:58:09;7.22;;;6.57;;
31378;SDS011;61664;48.112;11.662;2022-08-19T08:00:41;9.35;;;8.50;;
31378;SDS011;61664;48.112;11.662;2022-08-19T08:03:10;9.30;;;8.52;;
31378;SDS011;61664;48.112;11.662;2022-08-19T08:05:38;8.57;;;7.78;;
31378;SDS011;61664;48.112;11.662;2022-08-19T08:08:23;8.70;;;7.90;;
31378;SDS011;61664;48.112;11.662;2022-08-19T08:11:14;9.67;;;8.77;;
31378;SDS011;61664;48.112;11.662;2022-08-19T08:13:45;10.07;;;9.13;;
31378;SDS011;61664;48.112;11.662;2022-08-19T08:16:30;8.90;;;8.10;;
31378;SDS011;61664;48.112;11.662;2022-08-19T08:19:13;8.50;;;7.80;;
31378;SDS011;61664;48.112;11.662;2022-08-19T08:21:51;9.52;;;8.73;;
31378;SDS011;61664;48.112;11.662;2022-08-19T08:24:21;9.18;;;8.30;;
31378;SDS011;61664;48.112;11.662;2022-08-19T08:26:54;8.82;;;8.10;;
31378;SDS011;61664;48.112;11.662;2022-08-19T08:29:23;9.70;;;8.90;;
31378;SDS011;61664;48.112;11.662;2022-08-19T08:31:59;10.27;;;9.27;;
31378;SDS011;61664;48.112;11.662;2022-08-19T08:34:26;9.40;;;8.55;;
31378;SDS011;61664;48.112;11.662;2022-08-19T08:36:53;9.10;;;8.30;;
31378;SDS011;61664;48.112;11.662;2022-08-19T08:39:20;9.85;;;8.30;;
31378;SDS011;61664;48.112;11.662;2022-08-19T08:47:26;10.18;;;9.05;;
31378;SDS011;61664;48.112;11.662;2022-08-19T08:52:52;10.95;;;9.18;;
31378;SDS011;61664;48.112;11.662;2022-08-19T08:55:24;10.60;;;9.60;;
31378;SDS011;61664;48.112;11.662;2022-08-19T09:00:40;11.40;;;10.02;;
31378;SDS011;61664;48.112;11.662;2022-08-19T09:03:21;12.75;;;10.98;;
31378;SDS011;61664;48.112;11.662;2022-08-19T09:11:25;11.80;;;10.60;;
31378;SDS011;61664;48.112;11.662;2022-08-19T09:17:18;11.70;;;10.02;;
31378;SDS011;61664;48.112;11.662;2022-08-19T09:20:00;11.85;;;9.95;;
31378;SDS011;61664;48.112;11.662;2022-08-19T09:22:43;11.15;;;10.02;;
31378;SDS011;61664;48.112;11.662;2022-08-19T09:25:14;10.38;;;9.38;;
31378;SDS011;61664;48.112;11.662;2022-08-19T09:27:54;10.32;;;9.32;;
31378;SDS011;61664;48.112;11.662;2022-08-19T09:30:32;10.00;;;9.00;;
31378;SDS011;61664;48.112;11.662;2022-08-19T09:33:06;10.68;;;9.57;;
31378;SDS011;61664;48.112;11.662;2022-08-19T09:35:34;10.52;;;9.55;;
31378;SDS011;61664;48.112;11.662;2022-08-19T09:38:20;10.25;;;9.02;;
31378;SDS011;61664;48.112;11.662;2022-08-19T09:40:48;9.38;;;8.48;;
31378;SDS011;61664;48.112;11.662;2022-08-19T09:43:16;10.05;;;8.65;;
31378;SDS011;61664;48.112;11.662;2022-08-19T09:45:59;9.90;;;9.00;;
31378;SDS011;61664;48.112;11.662;2022-08-19T09:48:27;10.43;;;9.25;;
31378;SDS011;61664;48.112;11.662;2022-08-19T09:50:54;13.60;;;10.23;;
31378;SDS011;61664;48.112;11.662;2022-08-19T09:53:21;10.38;;;9.38;;
31378;SDS011;61664;48.112;11.662;2022-08-19T09:55:50;9.77;;;8.90;;
31378;SDS011;61664;48.112;11.662;2022-08-19T09:58:20;11.27;;;10.15;;
31378;SDS011;61664;48.112;11.662;2022-08-19T10:00:52;9.38;;;8.38;;
31378;SDS011;61664;48.112;11.662;2022-08-19T10:03:19;9.00;;;8.25;;
31378;SDS011;61664;48.112;11.662;2022-08-19T10:08:24;9.10;;;8.30;;
31378;SDS011;61664;48.112;11.662;2022-08-19T10:10:58;10.55;;;8.93;;
31378;SDS011;61664;48.112;11.662;2022-08-19T10:13:47;8.07;;;7.47;;
31378;SDS011;61664;48.112;11.662;2022-08-19T10:16:15;8.75;;;8.00;;
31378;SDS011;61664;48.112;11.662;2022-08-19T10:18:46;8.10;;;7.40;;
31378;SDS011;61664;48.112;11.662;2022-08-19T10:21:16;8.68;;;8.02;;
31378;SDS011;61664;48.112;11.662;2022-08-19T10:23:51;8.55;;;7.85;;
31378;SDS011;61664;48.112;11.662;2022-08-19T10:26:27;9.00;;;8.20;;
31378;SDS011;61664;48.112;11.662;2022-08-19T10:29:01;7.90;;;7.30;;
31378;SDS011;61664;48.112;11.662;2022-08-19T10:31:31;8.38;;;7.63;;
31378;SDS011;61664;48.112;11.662;2022-08-19T10:34:20;8.27;;;7.57;;
31378;SDS011;61664;48.112;11.662;2022-08-19T10:36:52;7.72;;;7.13;;
31378;SDS011;61664;48.112;11.662;2022-08-19T10:39:25;8.38;;;7.68;;
31378;SDS011;61664;48.112;11.662;2022-08-19T10:41:56;8.73;;;7.93;;
31378;SDS011;61664;48.112;11.662;2022-08-19T10:44:23;7.72;;;7.03;;
31378;SDS011;61664;48.112;11.662;2022-08-19T10:46:57;7.57;;;6.90;;
31378;SDS011;61664;48.112;11.662;2022-08-19T10:49:25;7.18;;;6.60;;
31378;SDS011;61664;48.112;11.662;2022-08-19T10:51:53;6.75;;;6.22;;
31378;SDS011;61664;48.112;11.662;2022-08-19T10:54:46;6.97;;;6.45;;
31378;SDS011;61664;48.112;11.662;2022-08-19T10:57:33;6.55;;;6.05;;
31378;SDS011;61664;48.112;11.662;2022-08-19T11:00:21;6.82;;;6.32;;
31378;SDS011;61664;48.112;11.662;2022-08-19T11:02:50;5.90;;;5.50;;
31378;SDS011;61664;48.112;11.662;2022-08-19T11:05:18;6.32;;;5.82;;
31378;SDS011;61664;48.112;11.662;2022-08-19T11:07:49;5.78;;;5.43;;
31378;SDS011;61664;48.112;11.662;2022-08-19T11:10:18;6.55;;;6.05;;
31378;SDS011;61664;48.112;11.662;2022-08-19T11:12:47;5.65;;;5.25;;
31378;SDS011;61664;48.112;11.662;2022-08-19T11:15:14;6.45;;;5.95;;
31378;SDS011;61664;48.112;11.662;2022-08-19T11:17:42;6.63;;;6.13;;
31378;SDS011;61664;48.112;11.662;2022-08-19T11:20:13;6.18;;;5.72;;
31378;SDS011;61664;48.112;11.662;2022-08-19T11:22:41;6.80;;;6.20;;
31378;SDS011;61664;48.112;11.662;2022-08-19T11:25:09;6.25;;;5.75;;
31378;SDS011;61664;48.112;11.662;2022-08-19T11:27:38;6.05;;;5.57;;
31378;SDS011;61664;48.112;11.662;2022-08-19T11:30:12;5.13;;;4.82;;
31378;SDS011;61664;48.112;11.662;2022-08-19T11:32:40;4.72;;;4.43;;
31378;SDS011;61664;48.112;11.662;2022-08-19T11:35:14;4.63;;;4.28;;
31378;SDS011;61664;48.112;11.662;2022-08-19T11:37:42;4.05;;;3.85;;
31378;SDS011;61664;48.112;11.662;2022-08-19T11:40:09;4.20;;;4.00;;
31378;SDS011;61664;48.112;11.662;2022-08-19T11:42:37;4.25;;;3.95;;
31378;SDS011;61664;48.112;11.662;2022-08-19T11:45:23;5.18;;;4.78;;
31378;SDS011;61664;48.112;11.662;2022-08-19T11:47:53;4.78;;;4.47;;
31378;SDS011;61664;48.112;11.662;2022-08-19T11:50:20;4.72;;;4.43;;
31378;SDS011;61664;48.112;11.662;2022-08-19T11:52:49;5.10;;;4.80;;
31378;SDS011;61664;48.112;11.662;2022-08-19T11:55:20;5.80;;;5.40;;
31378;SDS011;61664;48.112;11.662;2022-08-19T11:57:47;5.70;;;5.30;;
31378;SDS011;61664;48.112;11.662;2022-08-19T12:00:14;6.20;;;5.80;;
31378;SDS011;61664;48.112;11.662;2022-08-19T12:02:44;5.85;;;5.47;;
31378;SDS011;61664;48.112;11.662;2022-08-19T12:05:11;5.70;;;5.40;;
31378;SDS011;61664;48.112;11.662;2022-08-19T12:07:38;5.07;;;4.78;;
31378;SDS011;61664;48.112;11.662;2022-08-19T12:10:09;5.72;;;5.32;;
31378;SDS011;61664;48.112;11.662;2022-08-19T12:12:37;4.45;;;4.15;;
31378;SDS011;61664;48.112;11.662;2022-08-19T12:15:09;3.97;;;3.78;;
31378;SDS011;61664;48.112;11.662;2022-08-19T12:17:37;3.45;;;3.25;;
31378;SDS011;61664;48.112;11.662;2022-08-19T12:20:04;3.30;;;3.10;;
31378;SDS011;61664;48.112;11.662;2022-08-19T12:22:34;3.38;;;3.15;;
31378;SDS011;61664;48.112;11.662;2022-08-19T12:25:02;2.88;;;2.67;;
31378;SDS011;61664;48.112;11.662;2022-08-19T12:27:31;2.40;;;2.30;;
31378;SDS011;61664;48.112;11.662;2022-08-19T12:30:07;2.13;;;1.55;;
31378;SDS011;61664;48.112;11.662;2022-08-19T12:32:38;0.85;;;0.85;;
31378;SDS011;61664;48.112;11.662;2022-08-19T12:35:06;1.00;;;1.00;;
31378;SDS011;61664;48.112;11.662;2022-08-19T12:37:35;1.08;;;1.08;;
31378;SDS011;61664;48.112;11.662;2022-08-19T12:40:02;1.02;;;0.80;;
31378;SDS011;61664;48.112;11.662;2022-08-19T12:42:30;1.30;;;0.77;;
31378;SDS011;61664;48.112;11.662;2022-08-19T12:44:57;0.70;;;0.70;;
31378;SDS011;61664;48.112;11.662;2022-08-19T12:47:24;0.40;;;0.40;;
31378;SDS011;61664;48.112;11.662;2022-08-19T12:49:52;0.52;;;0.52;;
31378;SDS011;61664;48.112;11.662;2022-08-19T12:52:22;0.50;;;0.43;;
31378;SDS011;61664;48.112;11.662;2022-08-19T12:54:53;0.50;;;0.50;;
31378;SDS011;61664;48.112;11.662;2022-08-19T12:57:23;0.30;;;0.30;;
31378;SDS011;61664;48.112;11.662;2022-08-19T13:00:05;0.50;;;0.50;;
31378;SDS011;61664;48.112;11.662;2022-08-19T13:02:44;0.60;;;0.60;;
31378;SDS011;61664;48.112;11.662;2022-08-19T13:05:20;0.70;;;0.70;;
31378;SDS011;61664;48.112;11.662;2022-08-19T13:07:51;0.40;;;0.40;;
31378;SDS011;61664;48.112;11.662;2022-08-19T13:10:23;0.40;;;0.40;;
31378;SDS011;61664;48.112;11.662;2022-08-19T13:13:02;0.50;;;0.50;;
31378;SDS011;61664;48.112;11.662;2022-08-19T13:15:33;0.55;;;0.55;;
31378;SDS011;61664;48.112;11.662;2022-08-19T13:18:03;0.47;;;0.47;;
31378;SDS011;61664;48.112;11.662;2022-08-19T13:20:30;0.73;;;0.73;;
31378;SDS011;61664;48.112;11.662;2022-08-19T13:22:56;0.40;;;0.40;;
31378;SDS011;61664;48.112;11.662;2022-08-19T13:25:23;0.60;;;0.52;;
31378;SDS011;61664;48.112;11.662;2022-08-19T13:27:51;0.93;;;0.80;;
31378;SDS011;61664;48.112;11.662;2022-08-19T13:30:19;0.70;;;0.70;;
31378;SDS011;61664;48.112;11.662;2022-08-19T13:33:07;0.82;;;0.82;;
31378;SDS011;61664;48.112;11.662;2022-08-19T13:38:19;0.90;;;0.90;;
31378;SDS011;61664;48.112;11.662;2022-08-19T13:40:48;0.77;;;0.77;;
31378;SDS011;61664;48.112;11.662;2022-08-19T13:43:18;0.73;;;0.73;;
31378;SDS011;61664;48.112;11.662;2022-08-19T13:45:50;0.70;;;0.70;;
31378;SDS011;61664;48.112;11.662;2022-08-19T13:48:21;0.68;;;0.68;;
31378;SDS011;61664;48.112;11.662;2022-08-19T13:50:49;0.55;;;0.50;;
31378;SDS011;61664;48.112;11.662;2022-08-19T13:53:16;0.60;;;0.60;;
31378;SDS011;61664;48.112;11.662;2022-08-19T13:55:44;0.65;;;0.65;;
31378;SDS011;61664;48.112;11.662;2022-08-19T13:58:11;0.57;;;0.57;;
31378;SDS011;61664;48.112;11.662;2022-08-19T14:00:40;1.77;;;0.52;;
31378;SDS011;61664;48.112;11.662;2022-08-19T14:03:11;0.60;;;0.60;;
31378;SDS011;61664;48.112;11.662;2022-08-19T14:05:38;0.70;;;0.70;;
31378;SDS011;61664;48.112;11.662;2022-08-19T14:08:05;0.60;;;0.60;;
31378;SDS011;61664;48.112;11.662;2022-08-19T14:10:33;0.80;;;0.80;;
31378;SDS011;61664;48.112;11.662;2022-08-19T14:13:01;1.55;;;0.90;;
31378;SDS011;61664;48.112;11.662;2022-08-19T14:15:30;0.90;;;0.90;;
31378;SDS011;61664;48.112;11.662;2022-08-19T14:17:58;0.88;;;0.88;;
31378;SDS011;61664;48.112;11.662;2022-08-19T14:20:25;1.08;;;1.08;;
31378;SDS011;61664;48.112;11.662;2022-08-19T14:22:52;0.80;;;0.80;;
31378;SDS011;61664;48.112;11.662;2022-08-19T14:25:22;1.08;;;0.88;;
31378;SDS011;61664;48.112;11.662;2022-08-19T14:27:52;0.85;;;0.85;;
31378;SDS011;61664;48.112;11.662;2022-08-19T14:30:22;0.95;;;0.95;;
31378;SDS011;61664;48.112;11.662;2022-08-19T14:32:55;1.67;;;1.10;;
31378;SDS011;61664;48.112;11.662;2022-08-19T14:35:25;0.93;;;0.93;;
31378;SDS011;61664;48.112;11.662;2022-08-19T14:37:53;1.20;;;1.20;;
31378;SDS011;61664;48.112;11.662;2022-08-19T14:40:23;0.98;;;0.98;;
31378;SDS011;61664;48.112;11.662;2022-08-19T14:42:55;0.80;;;0.80;;
31378;SDS011;61664;48.112;11.662;2022-08-19T14:45:31;1.40;;;1.00;;
31378;SDS011;61664;48.112;11.662;2022-08-19T14:48:03;0.95;;;0.95;;
31378;SDS011;61664;48.112;11.662;2022-08-19T14:50:32;1.27;;;1.27;;
31378;SDS011;61664;48.112;11.662;2022-08-19T14:53:04;2.08;;;1.45;;
31378;SDS011;61664;48.112;11.662;2022-08-19T14:55:40;1.30;;;1.30;;
31378;SDS011;61664;48.112;11.662;2022-08-19T14:58:10;2.50;;;1.63;;
31378;SDS011;61664;48.112;11.662;2022-08-19T15:00:55;1.40;;;1.30;;
31378;SDS011;61664;48.112;11.662;2022-08-19T15:03:25;1.00;;;1.00;;
31378;SDS011;61664;48.112;11.662;2022-08-19T15:05:53;1.13;;;1.13;;
31378;SDS011;61664;48.112;11.662;2022-08-19T15:08:22;0.90;;;0.90;;
31378;SDS011;61664;48.112;11.662;2022-08-19T15:10:51;0.80;;;0.80;;
31378;SDS011;61664;48.112;11.662;2022-08-19T15:13:19;0.98;;;0.98;;
31378;SDS011;61664;48.112;11.662;2022-08-19T15:15:46;1.00;;;1.00;;
31378;SDS011;61664;48.112;11.662;2022-08-19T15:18:14;0.85;;;0.85;;
31378;SDS011;61664;48.112;11.662;2022-08-19T15:20:41;1.08;;;1.08;;
31378;SDS011;61664;48.112;11.662;2022-08-19T15:23:12;2.03;;;1.00;;
31378;SDS011;61664;48.112;11.662;2022-08-19T15:25:44;1.10;;;1.10;;
31378;SDS011;61664;48.112;11.662;2022-08-19T15:28:11;0.90;;;0.90;;